sensor_id;sensor_type;location;lat;lon;timestamp;temperature;humidity
9157;DHT22;4613;48.392;9.998;2022-12-10T00:02:49;1.40;99.90
9157;DHT22;4613;48.392;9.998;2022-12-10T00:05:38;1.50;99.90
9157;DHT22;4613;48.392;9.998;2022-12-10T00:08:30;1.60;99.90
9157;DHT22;4613;48.392;9.998;2022-12-10T00:11:21;1.50;99.90
9157;DHT22;4613;48.392;9.998;2022-12-10T00:14:12;1.50;99.90
9157;DHT22;4613;48.392;9.998;2022-12-10T00:17:02;1.40;99.90
9157;DHT22;4613;48.392;9.998;2022-12-10T00:19:52;1.50;99.90
9157;DHT22;4613;48.392;9.998;2022-12-10T00:22:41;1.50;99.90
9157;DHT22;4613;48.392;9.998;2022-12-10T00:25:31;1.60;99.90
9157;DHT22;4613;48.392;9.998;2022-12-10T00:28:21;1.60;99.90
9157;DHT22;4613;48.392;9.998;2022-12-10T00:31:14;1.50;99.90
9157;DHT22;4613;48.392;9.998;2022-12-10T00:34:05;1.40;99.90
9157;DHT22;4613;48.392;9.998;2022-12-10T00:36:55;1.50;99.90
9157;DHT22;4613;48.392;9.998;2022-12-10T00:39:45;1.40;99.90
9157;DHT22;4613;48.392;9.998;2022-12-10T00:42:35;1.30;99.90
9157;DHT22;4613;48.392;9.998;2022-12-10T00:45:25;1.40;99.90
9157;DHT22;4613;48.392;9.998;2022-12-10T00:48:17;1.50;99.90
9157;DHT22;4613;48.392;9.998;2022-12-10T00:51:19;1.50;99.90
9157;DHT22;4613;48.392;9.998;2022-12-10T00:54:08;1.60;99.90
9157;DHT22;4613;48.392;9.998;2022-12-10T00:56:58;1.50;99.90
9157;DHT22;4613;48.392;9.998;2022-12-10T00:59:48;1.40;99.90
9157;DHT22;4613;48.392;9.998;2022-12-10T01:02:37;1.30;99.90
9157;DHT22;4613;48.392;9.998;2022-12-10T01:05:26;1.40;99.90
9157;DHT22;4613;48.392;9.998;2022-12-10T01:08:16;1.30;99.90
9157;DHT22;4613;48.392;9.998;2022-12-10T01:11:06;1.40;99.90
9157;DHT22;4613;48.392;9.998;2022-12-10T01:13:57;1.30;99.90
9157;DHT22;4613;48.392;9.998;2022-12-10T01:16:46;1.40;99.90
9157;DHT22;4613;48.392;9.998;2022-12-10T01:19:36;1.40;99.90
9157;DHT22;4613;48.392;9.998;2022-12-10T01:22:25;1.30;99.90
9157;DHT22;4613;48.392;9.998;2022-12-10T01:25:15;1.20;99.90
9157;DHT22;4613;48.392;9.998;2022-12-10T01:28:04;1.30;99.90
9157;DHT22;4613;48.392;9.998;2022-12-10T01:30:53;1.30;99.90
9157;DHT22;4613;48.392;9.998;2022-12-10T01:33:43;1.30;99.90
9157;DHT22;4613;48.392;9.998;2022-12-10T01:36:35;1.40;99.90
9157;DHT22;4613;48.392;9.998;2022-12-10T01:39:26;1.40;99.90
9157;DHT22;4613;48.392;9.998;2022-12-10T01:42:16;1.50;99.90
9157;DHT22;4613;48.392;9.998;2022-12-10T01:45:12;1.50;99.90
9157;DHT22;4613;48.392;9.998;2022-12-10T01:48:02;1.50;99.90
9157;DHT22;4613;48.392;9.998;2022-12-10T01:50:51;1.50;99.90
9157;DHT22;4613;48.392;9.998;2022-12-10T01:53:42;1.60;99.90
9157;DHT22;4613;48.392;9.998;2022-12-10T01:56:35;1.50;99.90
9157;DHT22;4613;48.392;9.998;2022-12-10T01:59:25;1.60;99.90
9157;DHT22;4613;48.392;9.998;2022-12-10T02:02:44;1.60;99.90
9157;DHT22;4613;48.392;9.998;2022-12-10T02:05:43;1.60;99.90
9157;DHT22;4613;48.392;9.998;2022-12-10T02:08:44;1.50;99.90
9157;DHT22;4613;48.392;9.998;2022-12-10T02:11:46;1.40;99.90
9157;DHT22;4613;48.392;9.998;2022-12-10T02:14:51;1.50;99.90
9157;DHT22;4613;48.392;9.998;2022-12-10T02:17:52;1.50;99.90
9157;DHT22;4613;48.392;9.998;2022-12-10T02:20:53;1.50;99.90
9157;DHT22;4613;48.392;9.998;2022-12-10T02:23:47;1.40;99.90
9157;DHT22;4613;48.392;9.998;2022-12-10T02:26:45;1.40;99.90
9157;DHT22;4613;48.392;9.998;2022-12-10T02:29:38;1.50;99.90
9157;DHT22;4613;48.392;9.998;2022-12-10T02:32:35;1.50;99.90
9157;DHT22;4613;48.392;9.998;2022-12-10T02:35:29;1.30;99.90
9157;DHT22;4613;48.392;9.998;2022-12-10T02:38:32;1.60;99.90
9157;DHT22;4613;48.392;9.998;2022-12-10T02:41:29;1.60;99.90
9157;DHT22;4613;48.392;9.998;2022-12-10T02:44:23;1.50;99.90
9157;DHT22;4613;48.392;9.998;2022-12-10T02:47:16;1.50;99.90
9157;DHT22;4613;48.392;9.998;2022-12-10T02:50:10;1.60;99.90
9157;DHT22;4613;48.392;9.998;2022-12-10T02:53:00;1.50;99.90
9157;DHT22;4613;48.392;9.998;2022-12-10T02:56:10;1.60;99.90
9157;DHT22;4613;48.392;9.998;2022-12-10T02:59:38;1.50;99.90
9157;DHT22;4613;48.392;9.998;2022-12-10T03:06:07;1.40;99.90
9157;DHT22;4613;48.392;9.998;2022-12-10T03:09:07;1.50;99.90
9157;DHT22;4613;48.392;9.998;2022-12-10T03:12:01;1.50;99.90
9157;DHT22;4613;48.392;9.998;2022-12-10T03:14:52;1.30;99.90
9157;DHT22;4613;48.392;9.998;2022-12-10T03:17:44;1.30;99.90
9157;DHT22;4613;48.392;9.998;2022-12-10T03:20:38;1.40;99.90
9157;DHT22;4613;48.392;9.998;2022-12-10T03:23:28;1.40;99.90
9157;DHT22;4613;48.392;9.998;2022-12-10T03:26:20;1.30;99.90
9157;DHT22;4613;48.392;9.998;2022-12-10T03:29:23;1.20;99.90
9157;DHT22;4613;48.392;9.998;2022-12-10T03:32:14;1.30;99.90
9157;DHT22;4613;48.392;9.998;2022-12-10T03:35:06;1.20;99.90
9157;DHT22;4613;48.392;9.998;2022-12-10T03:37:56;1.20;99.90
9157;DHT22;4613;48.392;9.998;2022-12-10T03:40:45;1.30;99.90
9157;DHT22;4613;48.392;9.998;2022-12-10T03:43:34;1.20;99.90
9157;DHT22;4613;48.392;9.998;2022-12-10T03:46:26;1.20;99.90
9157;DHT22;4613;48.392;9.998;2022-12-10T03:49:16;1.30;99.90
9157;DHT22;4613;48.392;9.998;2022-12-10T03:52:06;1.40;99.90
9157;DHT22;4613;48.392;9.998;2022-12-10T03:54:54;1.30;99.90
9157;DHT22;4613;48.392;9.998;2022-12-10T03:57:44;1.40;99.90
9157;DHT22;4613;48.392;9.998;2022-12-10T04:00:33;1.30;99.90
9157;DHT22;4613;48.392;9.998;2022-12-10T04:03:23;1.30;99.90
9157;DHT22;4613;48.392;9.998;2022-12-10T04:06:17;1.30;99.90
9157;DHT22;4613;48.392;9.998;2022-12-10T04:09:09;1.30;99.90
9157;DHT22;4613;48.392;9.998;2022-12-10T04:11:59;1.20;99.90
9157;DHT22;4613;48.392;9.998;2022-12-10T04:14:48;1.20;99.90
9157;DHT22;4613;48.392;9.998;2022-12-10T04:17:56;1.20;99.90
9157;DHT22;4613;48.392;9.998;2022-12-10T04:20:45;1.20;99.90
9157;DHT22;4613;48.392;9.998;2022-12-10T04:23:53;1.20;99.90
9157;DHT22;4613;48.392;9.998;2022-12-10T04:27:35;1.00;99.90
9157;DHT22;4613;48.392;9.998;2022-12-10T04:30:25;0.90;99.90
9157;DHT22;4613;48.392;9.998;2022-12-10T04:33:14;0.90;99.90
9157;DHT22;4613;48.392;9.998;2022-12-10T04:36:04;1.10;99.90
9157;DHT22;4613;48.392;9.998;2022-12-10T04:38:54;1.10;99.90
9157;DHT22;4613;48.392;9.998;2022-12-10T04:41:47;1.10;99.90
9157;DHT22;4613;48.392;9.998;2022-12-10T04:44:36;0.90;99.90
9157;DHT22;4613;48.392;9.998;2022-12-10T04:47:26;1.00;99.90
9157;DHT22;4613;48.392;9.998;2022-12-10T04:50:16;1.10;99.90
9157;DHT22;4613;48.392;9.998;2022-12-10T04:53:05;1.20;99.90
9157;DHT22;4613;48.392;9.998;2022-12-10T04:55:54;1.20;99.90
9157;DHT22;4613;48.392;9.998;2022-12-10T04:58:44;1.20;99.90
9157;DHT22;4613;48.392;9.998;2022-12-10T05:01:34;1.20;99.90
9157;DHT22;4613;48.392;9.998;2022-12-10T05:04:24;1.10;99.90
9157;DHT22;4613;48.392;9.998;2022-12-10T05:07:13;1.20;99.90
9157;DHT22;4613;48.392;9.998;2022-12-10T05:10:03;1.00;99.90
9157;DHT22;4613;48.392;9.998;2022-12-10T05:12:53;1.10;99.90
9157;DHT22;4613;48.392;9.998;2022-12-10T05:15:42;1.10;99.90
9157;DHT22;4613;48.392;9.998;2022-12-10T05:18:32;1.20;99.90
9157;DHT22;4613;48.392;9.998;2022-12-10T05:21:23;1.20;99.90
9157;DHT22;4613;48.392;9.998;2022-12-10T05:24:13;1.30;99.90
9157;DHT22;4613;48.392;9.998;2022-12-10T05:27:03;1.30;99.90
9157;DHT22;4613;48.392;9.998;2022-12-10T05:29:53;1.30;99.90
9157;DHT22;4613;48.392;9.998;2022-12-10T05:32:42;1.30;99.90
9157;DHT22;4613;48.392;9.998;2022-12-10T05:35:31;1.40;99.90
9157;DHT22;4613;48.392;9.998;2022-12-10T05:38:20;1.10;99.90
9157;DHT22;4613;48.392;9.998;2022-12-10T05:41:14;1.20;99.90
9157;DHT22;4613;48.392;9.998;2022-12-10T05:44:04;1.30;99.90
9157;DHT22;4613;48.392;9.998;2022-12-10T05:46:53;1.30;99.90
9157;DHT22;4613;48.392;9.998;2022-12-10T05:49:43;1.30;99.90
9157;DHT22;4613;48.392;9.998;2022-12-10T05:52:32;1.30;99.90
9157;DHT22;4613;48.392;9.998;2022-12-10T05:55:21;1.20;99.90
9157;DHT22;4613;48.392;9.998;2022-12-10T05:58:10;1.30;99.90
9157;DHT22;4613;48.392;9.998;2022-12-10T06:01:00;1.20;99.90
9157;DHT22;4613;48.392;9.998;2022-12-10T06:03:54;1.30;99.90
9157;DHT22;4613;48.392;9.998;2022-12-10T06:06:45;1.20;99.90
9157;DHT22;4613;48.392;9.998;2022-12-10T06:09:36;1.20;99.90
9157;DHT22;4613;48.392;9.998;2022-12-10T06:12:25;1.30;99.90
9157;DHT22;4613;48.392;9.998;2022-12-10T06:15:15;1.20;99.90
9157;DHT22;4613;48.392;9.998;2022-12-10T06:18:04;1.20;99.90
9157;DHT22;4613;48.392;9.998;2022-12-10T06:20:54;1.30;99.90
9157;DHT22;4613;48.392;9.998;2022-12-10T06:23:43;1.30;99.90
9157;DHT22;4613;48.392;9.998;2022-12-10T06:26:32;1.10;99.90
9157;DHT22;4613;48.392;9.998;2022-12-10T06:29:21;1.20;99.90
9157;DHT22;4613;48.392;9.998;2022-12-10T06:32:11;1.30;99.90
9157;DHT22;4613;48.392;9.998;2022-12-10T06:35:00;1.30;99.90
9157;DHT22;4613;48.392;9.998;2022-12-10T06:37:50;1.30;99.90
9157;DHT22;4613;48.392;9.998;2022-12-10T06:40:40;1.30;99.90
9157;DHT22;4613;48.392;9.998;2022-12-10T06:43:30;1.20;99.90
9157;DHT22;4613;48.392;9.998;2022-12-10T06:46:20;1.30;99.90
9157;DHT22;4613;48.392;9.998;2022-12-10T06:49:10;1.40;99.90
9157;DHT22;4613;48.392;9.998;2022-12-10T06:51:59;1.30;99.90
9157;DHT22;4613;48.392;9.998;2022-12-10T06:54:49;1.30;99.90
9157;DHT22;4613;48.392;9.998;2022-12-10T06:57:38;1.30;99.90
9157;DHT22;4613;48.392;9.998;2022-12-10T07:00:27;1.30;99.90
9157;DHT22;4613;48.392;9.998;2022-12-10T07:03:17;1.20;99.90
9157;DHT22;4613;48.392;9.998;2022-12-10T07:06:08;1.30;99.90
9157;DHT22;4613;48.392;9.998;2022-12-10T07:08:58;1.30;99.90
9157;DHT22;4613;48.392;9.998;2022-12-10T07:11:48;1.30;99.90
9157;DHT22;4613;48.392;9.998;2022-12-10T07:14:38;1.30;99.90
9157;DHT22;4613;48.392;9.998;2022-12-10T07:17:27;1.40;99.90
9157;DHT22;4613;48.392;9.998;2022-12-10T07:20:16;1.40;99.90
9157;DHT22;4613;48.392;9.998;2022-12-10T07:23:06;1.30;99.90
9157;DHT22;4613;48.392;9.998;2022-12-10T07:25:56;1.30;99.90
9157;DHT22;4613;48.392;9.998;2022-12-10T07:28:46;1.40;99.90
9157;DHT22;4613;48.392;9.998;2022-12-10T07:31:35;1.30;99.90
9157;DHT22;4613;48.392;9.998;2022-12-10T07:34:25;1.40;99.90
9157;DHT22;4613;48.392;9.998;2022-12-10T07:37:14;1.40;99.90
9157;DHT22;4613;48.392;9.998;2022-12-10T07:40:06;1.40;99.90
9157;DHT22;4613;48.392;9.998;2022-12-10T07:42:55;1.30;99.90
9157;DHT22;4613;48.392;9.998;2022-12-10T07:45:46;1.30;99.90
9157;DHT22;4613;48.392;9.998;2022-12-10T07:48:36;1.40;99.90
9157;DHT22;4613;48.392;9.998;2022-12-10T07:51:29;1.40;99.90
9157;DHT22;4613;48.392;9.998;2022-12-10T07:54:19;1.60;99.90
9157;DHT22;4613;48.392;9.998;2022-12-10T07:57:09;1.90;99.90
9157;DHT22;4613;48.392;9.998;2022-12-10T07:59:58;2.00;99.90
9157;DHT22;4613;48.392;9.998;2022-12-10T08:02:48;2.00;99.90
9157;DHT22;4613;48.392;9.998;2022-12-10T08:05:38;1.90;99.90
9157;DHT22;4613;48.392;9.998;2022-12-10T08:08:32;1.70;99.90
9157;DHT22;4613;48.392;9.998;2022-12-10T08:11:22;1.50;99.90
9157;DHT22;4613;48.392;9.998;2022-12-10T08:14:11;1.60;99.90
9157;DHT22;4613;48.392;9.998;2022-12-10T08:17:00;1.70;99.90
9157;DHT22;4613;48.392;9.998;2022-12-10T08:19:50;1.80;99.90
9157;DHT22;4613;48.392;9.998;2022-12-10T08:22:40;1.80;99.90
9157;DHT22;4613;48.392;9.998;2022-12-10T08:25:29;1.80;99.90
9157;DHT22;4613;48.392;9.998;2022-12-10T08:28:18;1.90;99.90
9157;DHT22;4613;48.392;9.998;2022-12-10T08:31:09;1.90;99.90
9157;DHT22;4613;48.392;9.998;2022-12-10T08:33:59;1.90;99.90
9157;DHT22;4613;48.392;9.998;2022-12-10T08:36:48;4.70;99.90
9157;DHT22;4613;48.392;9.998;2022-12-10T08:39:38;6.40;99.90
9157;DHT22;4613;48.392;9.998;2022-12-10T08:42:28;5.80;99.90
9157;DHT22;4613;48.392;9.998;2022-12-10T08:45:17;3.30;99.90
9157;DHT22;4613;48.392;9.998;2022-12-10T08:48:07;2.40;99.90
9157;DHT22;4613;48.392;9.998;2022-12-10T08:50:57;2.20;99.90
9157;DHT22;4613;48.392;9.998;2022-12-10T08:53:48;1.80;99.90
9157;DHT22;4613;48.392;9.998;2022-12-10T08:56:38;2.00;99.90
9157;DHT22;4613;48.392;9.998;2022-12-10T08:59:28;1.90;99.90
9157;DHT22;4613;48.392;9.998;2022-12-10T09:02:17;1.80;99.90
9157;DHT22;4613;48.392;9.998;2022-12-10T09:05:07;2.00;99.90
9157;DHT22;4613;48.392;9.998;2022-12-10T09:08:00;2.00;99.90
9157;DHT22;4613;48.392;9.998;2022-12-10T09:10:49;2.10;99.90
9157;DHT22;4613;48.392;9.998;2022-12-10T09:13:39;2.10;99.90
9157;DHT22;4613;48.392;9.998;2022-12-10T09:16:33;2.20;99.90
9157;DHT22;4613;48.392;9.998;2022-12-10T09:19:23;2.20;99.90
9157;DHT22;4613;48.392;9.998;2022-12-10T09:22:13;2.20;99.90
9157;DHT22;4613;48.392;9.998;2022-12-10T09:25:04;2.20;99.90
9157;DHT22;4613;48.392;9.998;2022-12-10T09:27:54;2.20;99.90
9157;DHT22;4613;48.392;9.998;2022-12-10T09:30:43;2.20;99.90
9157;DHT22;4613;48.392;9.998;2022-12-10T09:33:34;2.20;99.90
9157;DHT22;4613;48.392;9.998;2022-12-10T09:36:23;2.30;99.90
9157;DHT22;4613;48.392;9.998;2022-12-10T09:39:14;2.30;99.90
9157;DHT22;4613;48.392;9.998;2022-12-10T09:45:40;2.30;99.90
9157;DHT22;4613;48.392;9.998;2022-12-10T09:51:44;2.30;99.90
9157;DHT22;4613;48.392;9.998;2022-12-10T09:54:56;2.30;99.90
9157;DHT22;4613;48.392;9.998;2022-12-10T09:57:49;2.30;99.90
9157;DHT22;4613;48.392;9.998;2022-12-10T10:00:40;2.20;99.90
9157;DHT22;4613;48.392;9.998;2022-12-10T10:03:38;2.10;99.90
9157;DHT22;4613;48.392;9.998;2022-12-10T10:06:29;2.20;99.90
9157;DHT22;4613;48.392;9.998;2022-12-10T10:09:19;2.30;99.90
9157;DHT22;4613;48.392;9.998;2022-12-10T10:12:15;2.40;99.90
9157;DHT22;4613;48.392;9.998;2022-12-10T10:15:13;2.30;99.90
9157;DHT22;4613;48.392;9.998;2022-12-10T10:18:17;2.30;99.90
9157;DHT22;4613;48.392;9.998;2022-12-10T10:21:23;2.30;99.90
9157;DHT22;4613;48.392;9.998;2022-12-10T10:24:15;2.30;99.90
9157;DHT22;4613;48.392;9.998;2022-12-10T10:27:23;2.40;99.90
9157;DHT22;4613;48.392;9.998;2022-12-10T10:30:18;2.40;99.90
9157;DHT22;4613;48.392;9.998;2022-12-10T10:33:12;2.30;99.90
9157;DHT22;4613;48.392;9.998;2022-12-10T10:36:02;2.10;99.90
9157;DHT22;4613;48.392;9.998;2022-12-10T10:38:52;2.20;99.90
9157;DHT22;4613;48.392;9.998;2022-12-10T10:41:42;2.10;99.90
9157;DHT22;4613;48.392;9.998;2022-12-10T10:44:37;2.20;99.90
9157;DHT22;4613;48.392;9.998;2022-12-10T10:47:32;2.40;99.90
9157;DHT22;4613;48.392;9.998;2022-12-10T10:50:25;2.30;99.90
9157;DHT22;4613;48.392;9.998;2022-12-10T10:53:30;2.30;99.90
9157;DHT22;4613;48.392;9.998;2022-12-10T10:56:29;2.30;99.90
9157;DHT22;4613;48.392;9.998;2022-12-10T10:59:29;2.20;99.90
9157;DHT22;4613;48.392;9.998;2022-12-10T11:05:21;2.40;99.90
9157;DHT22;4613;48.392;9.998;2022-12-10T11:08:19;2.30;99.90
9157;DHT22;4613;48.392;9.998;2022-12-10T11:11:34;2.30;99.90
9157;DHT22;4613;48.392;9.998;2022-12-10T11:14:45;2.40;99.90
9157;DHT22;4613;48.392;9.998;2022-12-10T11:17:35;2.10;99.90
9157;DHT22;4613;48.392;9.998;2022-12-10T11:20:33;2.30;99.90
9157;DHT22;4613;48.392;9.998;2022-12-10T11:23:28;2.30;99.90
9157;DHT22;4613;48.392;9.998;2022-12-10T11:29:48;2.30;99.90
9157;DHT22;4613;48.392;9.998;2022-12-10T11:45:16;2.30;99.90
9157;DHT22;4613;48.392;9.998;2022-12-10T11:51:16;2.30;99.90
9157;DHT22;4613;48.392;9.998;2022-12-10T12:00:24;2.00;99.90
9157;DHT22;4613;48.392;9.998;2022-12-10T12:04:10;1.70;99.90
9157;DHT22;4613;48.392;9.998;2022-12-10T12:13:26;2.20;99.90
9157;DHT22;4613;48.392;9.998;2022-12-10T12:16:22;2.20;99.90
9157;DHT22;4613;48.392;9.998;2022-12-10T12:19:35;2.20;99.90
9157;DHT22;4613;48.392;9.998;2022-12-10T12:22:29;2.20;99.90
9157;DHT22;4613;48.392;9.998;2022-12-10T12:25:26;2.20;99.90
9157;DHT22;4613;48.392;9.998;2022-12-10T12:28:21;2.10;99.90
9157;DHT22;4613;48.392;9.998;2022-12-10T12:31:15;2.20;99.90
9157;DHT22;4613;48.392;9.998;2022-12-10T12:34:25;2.20;99.90
9157;DHT22;4613;48.392;9.998;2022-12-10T12:37:18;2.20;99.90
9157;DHT22;4613;48.392;9.998;2022-12-10T12:40:11;2.20;99.90
9157;DHT22;4613;48.392;9.998;2022-12-10T12:43:33;2.10;99.90
9157;DHT22;4613;48.392;9.998;2022-12-10T12:46:35;2.20;99.90
9157;DHT22;4613;48.392;9.998;2022-12-10T12:49:33;2.30;99.90
9157;DHT22;4613;48.392;9.998;2022-12-10T12:52:43;2.20;99.90
9157;DHT22;4613;48.392;9.998;2022-12-10T12:56:01;2.00;99.90
9157;DHT22;4613;48.392;9.998;2022-12-10T13:02:06;2.10;99.90
9157;DHT22;4613;48.392;9.998;2022-12-10T13:05:01;2.10;99.90
9157;DHT22;4613;48.392;9.998;2022-12-10T13:19:50;2.20;99.90
9157;DHT22;4613;48.392;9.998;2022-12-10T13:22:43;2.00;99.90
9157;DHT22;4613;48.392;9.998;2022-12-10T13:34:25;1.60;99.90
9157;DHT22;4613;48.392;9.998;2022-12-10T13:43:20;1.60;99.90
9157;DHT22;4613;48.392;9.998;2022-12-10T13:46:40;1.70;99.90
9157;DHT22;4613;48.392;9.998;2022-12-10T13:49:56;1.70;99.90
9157;DHT22;4613;48.392;9.998;2022-12-10T13:59:13;1.90;99.90
9157;DHT22;4613;48.392;9.998;2022-12-10T14:07:56;1.70;99.90
9157;DHT22;4613;48.392;9.998;2022-12-10T14:10:47;1.80;99.90
9157;DHT22;4613;48.392;9.998;2022-12-10T14:13:52;1.90;99.90
9157;DHT22;4613;48.392;9.998;2022-12-10T14:16:42;1.90;99.90
9157;DHT22;4613;48.392;9.998;2022-12-10T14:19:33;1.90;99.90
9157;DHT22;4613;48.392;9.998;2022-12-10T14:22:45;1.90;99.90
9157;DHT22;4613;48.392;9.998;2022-12-10T14:25:41;2.00;99.90
9157;DHT22;4613;48.392;9.998;2022-12-10T14:28:31;2.00;99.90
9157;DHT22;4613;48.392;9.998;2022-12-10T14:31:33;1.90;99.90
9157;DHT22;4613;48.392;9.998;2022-12-10T14:34:26;1.90;99.90
9157;DHT22;4613;48.392;9.998;2022-12-10T14:37:16;1.90;99.90
9157;DHT22;4613;48.392;9.998;2022-12-10T14:40:12;2.00;99.90
9157;DHT22;4613;48.392;9.998;2022-12-10T14:43:12;2.00;99.90
9157;DHT22;4613;48.392;9.998;2022-12-10T14:46:05;1.70;99.90
9157;DHT22;4613;48.392;9.998;2022-12-10T14:48:54;1.80;99.90
9157;DHT22;4613;48.392;9.998;2022-12-10T14:51:44;1.70;99.90
9157;DHT22;4613;48.392;9.998;2022-12-10T14:54:34;1.60;99.90
9157;DHT22;4613;48.392;9.998;2022-12-10T14:57:42;1.50;99.90
9157;DHT22;4613;48.392;9.998;2022-12-10T15:00:33;1.30;99.90
9157;DHT22;4613;48.392;9.998;2022-12-10T15:03:29;1.50;99.90
9157;DHT22;4613;48.392;9.998;2022-12-10T15:06:20;1.50;99.90
9157;DHT22;4613;48.392;9.998;2022-12-10T15:09:21;1.40;99.90
9157;DHT22;4613;48.392;9.998;2022-12-10T15:12:25;1.40;99.90
9157;DHT22;4613;48.392;9.998;2022-12-10T15:18:18;1.20;99.90
9157;DHT22;4613;48.392;9.998;2022-12-10T15:21:23;1.20;99.90
9157;DHT22;4613;48.392;9.998;2022-12-10T15:24:21;1.30;99.90
9157;DHT22;4613;48.392;9.998;2022-12-10T15:27:21;1.50;99.90
9157;DHT22;4613;48.392;9.998;2022-12-10T15:30:43;2.20;99.90
9157;DHT22;4613;48.392;9.998;2022-12-10T15:34:28;3.10;99.90
9157;DHT22;4613;48.392;9.998;2022-12-10T15:36:53;1.70;99.90
9157;DHT22;4613;48.392;9.998;2022-12-10T15:40:21;1.30;99.90
9157;DHT22;4613;48.392;9.998;2022-12-10T15:43:29;1.30;99.90
9157;DHT22;4613;48.392;9.998;2022-12-10T15:46:18;1.00;99.90
9157;DHT22;4613;48.392;9.998;2022-12-10T15:49:08;0.90;99.90
9157;DHT22;4613;48.392;9.998;2022-12-10T15:51:58;0.90;99.90
9157;DHT22;4613;48.392;9.998;2022-12-10T15:54:49;1.00;99.90
9157;DHT22;4613;48.392;9.998;2022-12-10T15:57:40;1.10;99.90
9157;DHT22;4613;48.392;9.998;2022-12-10T16:00:37;1.10;99.90
9157;DHT22;4613;48.392;9.998;2022-12-10T16:03:33;1.40;99.90
9157;DHT22;4613;48.392;9.998;2022-12-10T16:06:23;1.20;99.90
9157;DHT22;4613;48.392;9.998;2022-12-10T16:09:12;1.30;99.90
9157;DHT22;4613;48.392;9.998;2022-12-10T16:12:02;1.30;99.90
9157;DHT22;4613;48.392;9.998;2022-12-10T16:14:54;1.50;99.90
9157;DHT22;4613;48.392;9.998;2022-12-10T16:17:48;2.90;99.90
9157;DHT22;4613;48.392;9.998;2022-12-10T16:20:38;4.50;99.90
9157;DHT22;4613;48.392;9.998;2022-12-10T16:23:28;3.80;99.90
9157;DHT22;4613;48.392;9.998;2022-12-10T16:26:20;2.10;99.90
9157;DHT22;4613;48.392;9.998;2022-12-10T16:29:10;1.50;99.90
9157;DHT22;4613;48.392;9.998;2022-12-10T16:32:00;1.70;99.90
9157;DHT22;4613;48.392;9.998;2022-12-10T16:34:49;1.70;99.90
9157;DHT22;4613;48.392;9.998;2022-12-10T16:37:40;1.70;99.90
9157;DHT22;4613;48.392;9.998;2022-12-10T16:40:30;1.70;99.90
9157;DHT22;4613;48.392;9.998;2022-12-10T16:43:21;1.70;99.90
9157;DHT22;4613;48.392;9.998;2022-12-10T16:46:11;1.60;99.90
9157;DHT22;4613;48.392;9.998;2022-12-10T16:49:01;1.70;99.90
9157;DHT22;4613;48.392;9.998;2022-12-10T16:51:51;1.70;99.90
9157;DHT22;4613;48.392;9.998;2022-12-10T16:54:41;1.50;99.90
9157;DHT22;4613;48.392;9.998;2022-12-10T16:57:30;1.50;99.90
9157;DHT22;4613;48.392;9.998;2022-12-10T17:00:22;1.60;99.90
9157;DHT22;4613;48.392;9.998;2022-12-10T17:03:12;1.60;99.90
9157;DHT22;4613;48.392;9.998;2022-12-10T17:06:11;1.60;99.90
9157;DHT22;4613;48.392;9.998;2022-12-10T17:09:02;1.60;99.90
9157;DHT22;4613;48.392;9.998;2022-12-10T17:11:52;1.50;99.90
9157;DHT22;4613;48.392;9.998;2022-12-10T17:14:43;1.50;99.90
9157;DHT22;4613;48.392;9.998;2022-12-10T17:17:35;1.50;99.90
9157;DHT22;4613;48.392;9.998;2022-12-10T17:20:28;1.50;99.90
9157;DHT22;4613;48.392;9.998;2022-12-10T17:23:19;1.50;99.90
9157;DHT22;4613;48.392;9.998;2022-12-10T17:26:31;1.50;99.90
9157;DHT22;4613;48.392;9.998;2022-12-10T17:29:27;1.40;99.90
9157;DHT22;4613;48.392;9.998;2022-12-10T17:32:18;1.40;99.90
9157;DHT22;4613;48.392;9.998;2022-12-10T17:35:10;1.40;99.90
9157;DHT22;4613;48.392;9.998;2022-12-10T17:37:59;1.50;99.90
9157;DHT22;4613;48.392;9.998;2022-12-10T17:40:48;1.50;99.90
9157;DHT22;4613;48.392;9.998;2022-12-10T17:43:39;1.40;99.90
9157;DHT22;4613;48.392;9.998;2022-12-10T17:46:29;1.50;99.90
9157;DHT22;4613;48.392;9.998;2022-12-10T17:49:18;1.60;99.90
9157;DHT22;4613;48.392;9.998;2022-12-10T17:52:08;1.50;99.90
9157;DHT22;4613;48.392;9.998;2022-12-10T17:54:58;1.50;99.90
9157;DHT22;4613;48.392;9.998;2022-12-10T17:57:47;1.40;99.90
9157;DHT22;4613;48.392;9.998;2022-12-10T18:00:38;1.50;99.90
9157;DHT22;4613;48.392;9.998;2022-12-10T18:03:27;1.40;99.90
9157;DHT22;4613;48.392;9.998;2022-12-10T18:06:19;1.40;99.90
9157;DHT22;4613;48.392;9.998;2022-12-10T18:09:10;1.10;99.90
9157;DHT22;4613;48.392;9.998;2022-12-10T18:12:01;1.20;99.90
9157;DHT22;4613;48.392;9.998;2022-12-10T18:14:50;1.40;99.90
9157;DHT22;4613;48.392;9.998;2022-12-10T18:17:39;1.30;99.90
9157;DHT22;4613;48.392;9.998;2022-12-10T18:20:32;1.30;99.90
9157;DHT22;4613;48.392;9.998;2022-12-10T18:23:21;1.30;99.90
9157;DHT22;4613;48.392;9.998;2022-12-10T18:26:14;1.10;99.90
9157;DHT22;4613;48.392;9.998;2022-12-10T18:29:04;1.30;99.90
9157;DHT22;4613;48.392;9.998;2022-12-10T18:31:54;1.30;99.90
9157;DHT22;4613;48.392;9.998;2022-12-10T18:34:43;0.90;99.90
9157;DHT22;4613;48.392;9.998;2022-12-10T18:37:33;1.00;99.90
9157;DHT22;4613;48.392;9.998;2022-12-10T18:40:23;1.00;99.90
9157;DHT22;4613;48.392;9.998;2022-12-10T18:43:12;0.80;99.90
9157;DHT22;4613;48.392;9.998;2022-12-10T18:46:02;1.10;99.90
9157;DHT22;4613;48.392;9.998;2022-12-10T18:48:52;1.10;99.90
9157;DHT22;4613;48.392;9.998;2022-12-10T18:51:44;1.10;99.90
9157;DHT22;4613;48.392;9.998;2022-12-10T18:54:33;1.20;99.90
9157;DHT22;4613;48.392;9.998;2022-12-10T18:57:23;1.00;99.90
9157;DHT22;4613;48.392;9.998;2022-12-10T19:00:15;0.80;99.90
9157;DHT22;4613;48.392;9.998;2022-12-10T19:03:05;1.10;99.90
9157;DHT22;4613;48.392;9.998;2022-12-10T19:05:55;1.20;99.90
9157;DHT22;4613;48.392;9.998;2022-12-10T19:08:45;1.30;99.90
9157;DHT22;4613;48.392;9.998;2022-12-10T19:11:35;1.20;99.90
9157;DHT22;4613;48.392;9.998;2022-12-10T19:14:33;1.10;99.90
9157;DHT22;4613;48.392;9.998;2022-12-10T19:17:23;1.00;99.90
9157;DHT22;4613;48.392;9.998;2022-12-10T19:20:17;0.90;99.90
9157;DHT22;4613;48.392;9.998;2022-12-10T19:23:07;0.80;99.90
9157;DHT22;4613;48.392;9.998;2022-12-10T19:25:57;0.70;99.90
9157;DHT22;4613;48.392;9.998;2022-12-10T19:28:46;0.60;99.90
9157;DHT22;4613;48.392;9.998;2022-12-10T19:31:36;0.50;99.90
9157;DHT22;4613;48.392;9.998;2022-12-10T19:34:26;0.60;99.90
9157;DHT22;4613;48.392;9.998;2022-12-10T19:37:17;0.90;99.90
9157;DHT22;4613;48.392;9.998;2022-12-10T19:40:24;1.10;99.90
9157;DHT22;4613;48.392;9.998;2022-12-10T19:43:14;0.90;99.90
9157;DHT22;4613;48.392;9.998;2022-12-10T19:46:22;1.00;99.90
9157;DHT22;4613;48.392;9.998;2022-12-10T19:49:13;0.60;99.90
9157;DHT22;4613;48.392;9.998;2022-12-10T19:52:03;0.50;99.90
9157;DHT22;4613;48.392;9.998;2022-12-10T19:54:53;0.80;99.90
9157;DHT22;4613;48.392;9.998;2022-12-10T19:57:45;0.80;99.90
9157;DHT22;4613;48.392;9.998;2022-12-10T20:00:34;0.70;99.90
9157;DHT22;4613;48.392;9.998;2022-12-10T20:03:24;0.80;99.90
9157;DHT22;4613;48.392;9.998;2022-12-10T20:06:20;0.70;99.90
9157;DHT22;4613;48.392;9.998;2022-12-10T20:09:18;0.70;99.90
9157;DHT22;4613;48.392;9.998;2022-12-10T20:12:08;0.70;99.90
9157;DHT22;4613;48.392;9.998;2022-12-10T20:14:58;0.60;99.90
9157;DHT22;4613;48.392;9.998;2022-12-10T20:17:48;0.50;99.90
9157;DHT22;4613;48.392;9.998;2022-12-10T20:20:37;0.40;99.90
9157;DHT22;4613;48.392;9.998;2022-12-10T20:23:27;0.60;99.90
9157;DHT22;4613;48.392;9.998;2022-12-10T20:26:40;0.80;99.90
9157;DHT22;4613;48.392;9.998;2022-12-10T20:29:28;0.70;99.90
9157;DHT22;4613;48.392;9.998;2022-12-10T20:32:18;0.80;99.90
9157;DHT22;4613;48.392;9.998;2022-12-10T20:35:12;0.80;99.90
9157;DHT22;4613;48.392;9.998;2022-12-10T20:38:01;0.80;99.90
9157;DHT22;4613;48.392;9.998;2022-12-10T20:40:51;0.80;99.90